Terminal Aerodrome Forecast
Issued by NWS

Home | Current Version | Previous Version | Text Only | Print | Product List | Glossary On
Versions: 1 2 3 4 5 6 7 8 9 10 11 12 13 14 15 16 17 18 19
000
FTUS46 KSEW 221100
TAFOLM
TAF
KOLM 221121Z 2212/2312 23006KT P6SM SCT030
      TEMPO 2212/2216 BKN030
     FM221600 19005KT 2SM BR BKN012 OVC025
     FM222100 19005KT P6SM SCT035 BKN150
     FM230700 00000KT 2SM BR BKN008 BKN020=

USA.gov is the U.S. government's official web portal to all federal, state and local government web resources and services.